sensor_id;sensor_type;location;lat;lon;timestamp;temperature;humidity
5576;DHT22;2810;50.134;8.626;2023-01-26T00:02:02;1.30;99.90
5576;DHT22;2810;50.134;8.626;2023-01-26T00:04:27;1.20;99.90
5576;DHT22;2810;50.134;8.626;2023-01-26T00:06:53;1.20;99.90
5576;DHT22;2810;50.134;8.626;2023-01-26T00:09:18;1.20;99.90
5576;DHT22;2810;50.134;8.626;2023-01-26T00:11:43;1.20;99.90
5576;DHT22;2810;50.134;8.626;2023-01-26T00:14:09;1.20;99.90
5576;DHT22;2810;50.134;8.626;2023-01-26T00:16:34;1.20;99.90
5576;DHT22;2810;50.134;8.626;2023-01-26T00:19:00;1.10;99.90
5576;DHT22;2810;50.134;8.626;2023-01-26T00:21:26;1.20;99.90
5576;DHT22;2810;50.134;8.626;2023-01-26T00:23:52;1.10;99.90
5576;DHT22;2810;50.134;8.626;2023-01-26T00:26:19;1.20;99.90
5576;DHT22;2810;50.134;8.626;2023-01-26T00:28:44;1.20;99.90
5576;DHT22;2810;50.134;8.626;2023-01-26T00:31:14;1.10;99.90
5576;DHT22;2810;50.134;8.626;2023-01-26T00:33:40;1.20;99.90
5576;DHT22;2810;50.134;8.626;2023-01-26T00:36:06;1.20;99.90
5576;DHT22;2810;50.134;8.626;2023-01-26T00:38:32;1.20;99.90
5576;DHT22;2810;50.134;8.626;2023-01-26T00:40:57;1.20;99.90
5576;DHT22;2810;50.134;8.626;2023-01-26T00:43:23;1.20;99.90
5576;DHT22;2810;50.134;8.626;2023-01-26T00:45:48;1.20;99.90
5576;DHT22;2810;50.134;8.626;2023-01-26T00:48:14;1.20;99.90
5576;DHT22;2810;50.134;8.626;2023-01-26T00:50:39;1.10;99.90
5576;DHT22;2810;50.134;8.626;2023-01-26T00:53:05;1.20;99.90
5576;DHT22;2810;50.134;8.626;2023-01-26T00:55:30;1.20;99.90
5576;DHT22;2810;50.134;8.626;2023-01-26T00:57:59;1.20;99.90
5576;DHT22;2810;50.134;8.626;2023-01-26T01:00:25;1.20;99.90
5576;DHT22;2810;50.134;8.626;2023-01-26T01:02:51;1.20;99.90
5576;DHT22;2810;50.134;8.626;2023-01-26T01:05:16;1.20;99.90
5576;DHT22;2810;50.134;8.626;2023-01-26T01:07:41;1.80;99.90
5576;DHT22;2810;50.134;8.626;2023-01-26T01:10:07;1.10;99.90
5576;DHT22;2810;50.134;8.626;2023-01-26T01:12:34;1.10;99.90
5576;DHT22;2810;50.134;8.626;2023-01-26T01:15:00;1.00;99.90
5576;DHT22;2810;50.134;8.626;2023-01-26T01:17:25;1.00;99.90
5576;DHT22;2810;50.134;8.626;2023-01-26T01:19:51;1.00;99.90
5576;DHT22;2810;50.134;8.626;2023-01-26T01:22:16;1.00;99.90
5576;DHT22;2810;50.134;8.626;2023-01-26T01:24:42;0.90;99.90
5576;DHT22;2810;50.134;8.626;2023-01-26T01:27:07;0.90;99.90
5576;DHT22;2810;50.134;8.626;2023-01-26T01:29:33;1.00;99.90
5576;DHT22;2810;50.134;8.626;2023-01-26T01:31:58;0.90;99.90
5576;DHT22;2810;50.134;8.626;2023-01-26T01:34:24;1.00;99.90
5576;DHT22;2810;50.134;8.626;2023-01-26T01:36:49;1.00;99.90
5576;DHT22;2810;50.134;8.626;2023-01-26T01:39:15;1.00;99.90
5576;DHT22;2810;50.134;8.626;2023-01-26T01:41:40;1.00;99.90
5576;DHT22;2810;50.134;8.626;2023-01-26T01:44:16;1.00;99.90
5576;DHT22;2810;50.134;8.626;2023-01-26T01:46:44;1.00;99.90
5576;DHT22;2810;50.134;8.626;2023-01-26T01:51:43;1.00;99.90
5576;DHT22;2810;50.134;8.626;2023-01-26T01:54:10;1.00;99.90
5576;DHT22;2810;50.134;8.626;2023-01-26T01:56:38;1.60;99.90
5576;DHT22;2810;50.134;8.626;2023-01-26T01:59:04;0.90;99.90
5576;DHT22;2810;50.134;8.626;2023-01-26T02:01:31;0.90;99.90
5576;DHT22;2810;50.134;8.626;2023-01-26T02:03:58;0.90;99.90
5576;DHT22;2810;50.134;8.626;2023-01-26T02:06:29;0.90;99.90
5576;DHT22;2810;50.134;8.626;2023-01-26T02:08:56;1.10;99.90
5576;DHT22;2810;50.134;8.626;2023-01-26T02:11:24;0.80;99.90
5576;DHT22;2810;50.134;8.626;2023-01-26T02:13:49;0.80;99.90
5576;DHT22;2810;50.134;8.626;2023-01-26T02:16:16;0.80;99.90
5576;DHT22;2810;50.134;8.626;2023-01-26T02:18:41;0.80;99.90
5576;DHT22;2810;50.134;8.626;2023-01-26T02:21:08;0.80;99.90
5576;DHT22;2810;50.134;8.626;2023-01-26T02:26:14;0.70;99.90
5576;DHT22;2810;50.134;8.626;2023-01-26T02:28:40;0.70;99.90
5576;DHT22;2810;50.134;8.626;2023-01-26T02:31:07;0.70;99.90
5576;DHT22;2810;50.134;8.626;2023-01-26T02:33:33;0.60;99.90
5576;DHT22;2810;50.134;8.626;2023-01-26T02:35:59;0.60;99.90
5576;DHT22;2810;50.134;8.626;2023-01-26T02:38:26;1.30;99.90
5576;DHT22;2810;50.134;8.626;2023-01-26T02:40:54;0.60;99.90
5576;DHT22;2810;50.134;8.626;2023-01-26T02:43:20;1.40;99.90
5576;DHT22;2810;50.134;8.626;2023-01-26T02:45:48;0.60;99.90
5576;DHT22;2810;50.134;8.626;2023-01-26T02:48:13;0.60;99.90
5576;DHT22;2810;50.134;8.626;2023-01-26T02:50:59;0.70;99.90
5576;DHT22;2810;50.134;8.626;2023-01-26T02:53:24;0.60;99.90
5576;DHT22;2810;50.134;8.626;2023-01-26T02:55:49;0.60;99.90
5576;DHT22;2810;50.134;8.626;2023-01-26T02:58:16;0.50;99.90
5576;DHT22;2810;50.134;8.626;2023-01-26T03:00:41;0.60;99.90
5576;DHT22;2810;50.134;8.626;2023-01-26T03:03:10;0.50;99.90
5576;DHT22;2810;50.134;8.626;2023-01-26T03:05:36;0.50;99.90
5576;DHT22;2810;50.134;8.626;2023-01-26T03:08:02;0.50;99.90
5576;DHT22;2810;50.134;8.626;2023-01-26T03:10:30;0.90;99.90
5576;DHT22;2810;50.134;8.626;2023-01-26T03:12:56;0.50;99.90
5576;DHT22;2810;50.134;8.626;2023-01-26T03:15:21;1.10;99.90
5576;DHT22;2810;50.134;8.626;2023-01-26T03:18:08;0.50;99.90
5576;DHT22;2810;50.134;8.626;2023-01-26T03:20:52;0.50;99.90
5576;DHT22;2810;50.134;8.626;2023-01-26T03:23:36;1.20;99.90
5576;DHT22;2810;50.134;8.626;2023-01-26T03:26:20;0.50;99.90
5576;DHT22;2810;50.134;8.626;2023-01-26T03:29:05;0.50;99.90
5576;DHT22;2810;50.134;8.626;2023-01-26T03:31:30;0.40;99.90
5576;DHT22;2810;50.134;8.626;2023-01-26T03:33:56;0.40;99.90
5576;DHT22;2810;50.134;8.626;2023-01-26T03:36:21;0.50;99.90
5576;DHT22;2810;50.134;8.626;2023-01-26T03:38:46;0.50;99.90
5576;DHT22;2810;50.134;8.626;2023-01-26T03:41:12;0.50;99.90
5576;DHT22;2810;50.134;8.626;2023-01-26T03:43:56;0.60;99.90
5576;DHT22;2810;50.134;8.626;2023-01-26T03:46:40;0.50;99.90
5576;DHT22;2810;50.134;8.626;2023-01-26T03:49:25;0.50;99.90
5576;DHT22;2810;50.134;8.626;2023-01-26T03:52:09;0.50;99.90
5576;DHT22;2810;50.134;8.626;2023-01-26T03:54:53;0.50;99.90
5576;DHT22;2810;50.134;8.626;2023-01-26T03:57:37;0.60;99.90
5576;DHT22;2810;50.134;8.626;2023-01-26T04:00:03;0.50;99.90
5576;DHT22;2810;50.134;8.626;2023-01-26T04:02:28;0.50;99.90
5576;DHT22;2810;50.134;8.626;2023-01-26T04:05:12;0.50;99.90
5576;DHT22;2810;50.134;8.626;2023-01-26T04:08:00;0.60;99.90
5576;DHT22;2810;50.134;8.626;2023-01-26T04:10:45;0.60;99.90
5576;DHT22;2810;50.134;8.626;2023-01-26T04:13:10;0.50;99.90
5576;DHT22;2810;50.134;8.626;2023-01-26T04:15:54;0.50;99.90
5576;DHT22;2810;50.134;8.626;2023-01-26T04:18:38;0.50;99.90
5576;DHT22;2810;50.134;8.626;2023-01-26T04:21:22;0.40;99.90
5576;DHT22;2810;50.134;8.626;2023-01-26T04:23:53;0.40;99.90
5576;DHT22;2810;50.134;8.626;2023-01-26T04:26:20;0.50;99.90
5576;DHT22;2810;50.134;8.626;2023-01-26T04:28:46;1.20;99.90
5576;DHT22;2810;50.134;8.626;2023-01-26T04:31:11;0.50;99.90
5576;DHT22;2810;50.134;8.626;2023-01-26T04:33:37;0.50;99.90
5576;DHT22;2810;50.134;8.626;2023-01-26T04:36:06;0.50;99.90
5576;DHT22;2810;50.134;8.626;2023-01-26T04:38:32;0.80;99.90
5576;DHT22;2810;50.134;8.626;2023-01-26T04:40:57;1.20;99.90
5576;DHT22;2810;50.134;8.626;2023-01-26T04:43:23;0.50;99.90
5576;DHT22;2810;50.134;8.626;2023-01-26T04:48:23;0.50;99.90
5576;DHT22;2810;50.134;8.626;2023-01-26T04:50:55;0.50;99.90
5576;DHT22;2810;50.134;8.626;2023-01-26T04:53:21;0.60;99.90
5576;DHT22;2810;50.134;8.626;2023-01-26T04:55:46;0.60;99.90
5576;DHT22;2810;50.134;8.626;2023-01-26T04:58:12;0.60;99.90
5576;DHT22;2810;50.134;8.626;2023-01-26T05:00:37;0.60;99.90
5576;DHT22;2810;50.134;8.626;2023-01-26T05:03:03;0.60;99.90
5576;DHT22;2810;50.134;8.626;2023-01-26T05:05:28;0.60;99.90
5576;DHT22;2810;50.134;8.626;2023-01-26T05:07:54;0.60;99.90
5576;DHT22;2810;50.134;8.626;2023-01-26T05:10:19;0.50;99.90
5576;DHT22;2810;50.134;8.626;2023-01-26T05:12:44;0.60;99.90
5576;DHT22;2810;50.134;8.626;2023-01-26T05:15:10;0.60;99.90
5576;DHT22;2810;50.134;8.626;2023-01-26T05:17:35;0.60;99.90
5576;DHT22;2810;50.134;8.626;2023-01-26T05:20:01;0.60;99.90
5576;DHT22;2810;50.134;8.626;2023-01-26T05:22:26;0.80;99.90
5576;DHT22;2810;50.134;8.626;2023-01-26T05:24:52;0.60;99.90
5576;DHT22;2810;50.134;8.626;2023-01-26T05:27:17;0.60;99.90
5576;DHT22;2810;50.134;8.626;2023-01-26T05:29:46;0.60;99.90
5576;DHT22;2810;50.134;8.626;2023-01-26T05:32:11;0.60;99.90
5576;DHT22;2810;50.134;8.626;2023-01-26T05:34:37;0.70;99.90
5576;DHT22;2810;50.134;8.626;2023-01-26T05:37:02;0.70;99.90
5576;DHT22;2810;50.134;8.626;2023-01-26T05:39:28;0.60;99.90
5576;DHT22;2810;50.134;8.626;2023-01-26T05:41:53;0.60;99.90
5576;DHT22;2810;50.134;8.626;2023-01-26T05:44:21;0.50;99.90
5576;DHT22;2810;50.134;8.626;2023-01-26T05:46:47;0.60;99.90
5576;DHT22;2810;50.134;8.626;2023-01-26T05:49:12;0.50;99.90
5576;DHT22;2810;50.134;8.626;2023-01-26T05:51:38;0.50;99.90
5576;DHT22;2810;50.134;8.626;2023-01-26T05:54:03;0.50;99.90
5576;DHT22;2810;50.134;8.626;2023-01-26T05:56:29;0.50;99.90
5576;DHT22;2810;50.134;8.626;2023-01-26T05:58:54;0.60;99.90
5576;DHT22;2810;50.134;8.626;2023-01-26T06:01:19;1.00;99.90
5576;DHT22;2810;50.134;8.626;2023-01-26T06:03:45;0.60;99.90
5576;DHT22;2810;50.134;8.626;2023-01-26T06:06:10;0.60;99.90
5576;DHT22;2810;50.134;8.626;2023-01-26T06:08:36;0.70;99.90
5576;DHT22;2810;50.134;8.626;2023-01-26T06:11:01;0.60;99.90
5576;DHT22;2810;50.134;8.626;2023-01-26T06:13:27;0.60;99.90
5576;DHT22;2810;50.134;8.626;2023-01-26T06:15:52;0.60;99.90
5576;DHT22;2810;50.134;8.626;2023-01-26T06:18:17;0.60;99.90
5576;DHT22;2810;50.134;8.626;2023-01-26T06:20:43;0.60;99.90
5576;DHT22;2810;50.134;8.626;2023-01-26T06:23:08;0.60;99.90
5576;DHT22;2810;50.134;8.626;2023-01-26T06:25:36;0.60;99.90
5576;DHT22;2810;50.134;8.626;2023-01-26T06:28:04;0.40;99.90
5576;DHT22;2810;50.134;8.626;2023-01-26T06:30:29;0.50;99.90
5576;DHT22;2810;50.134;8.626;2023-01-26T06:32:55;0.50;99.90
5576;DHT22;2810;50.134;8.626;2023-01-26T06:35:20;0.50;99.90
5576;DHT22;2810;50.134;8.626;2023-01-26T06:37:49;0.50;99.90
5576;DHT22;2810;50.134;8.626;2023-01-26T06:40:15;0.40;99.90
5576;DHT22;2810;50.134;8.626;2023-01-26T06:42:47;0.40;99.90
5576;DHT22;2810;50.134;8.626;2023-01-26T06:45:13;0.40;99.90
5576;DHT22;2810;50.134;8.626;2023-01-26T06:47:43;1.10;99.90
5576;DHT22;2810;50.134;8.626;2023-01-26T06:50:09;0.40;99.90
5576;DHT22;2810;50.134;8.626;2023-01-26T06:52:34;0.40;99.90
5576;DHT22;2810;50.134;8.626;2023-01-26T06:55:00;0.40;99.90
5576;DHT22;2810;50.134;8.626;2023-01-26T06:57:26;0.40;99.90
5576;DHT22;2810;50.134;8.626;2023-01-26T06:59:51;0.30;99.90
5576;DHT22;2810;50.134;8.626;2023-01-26T07:02:18;0.30;99.90
5576;DHT22;2810;50.134;8.626;2023-01-26T07:04:44;0.30;99.90
5576;DHT22;2810;50.134;8.626;2023-01-26T07:07:10;0.20;99.90
5576;DHT22;2810;50.134;8.626;2023-01-26T07:09:35;0.20;99.90
5576;DHT22;2810;50.134;8.626;2023-01-26T07:12:01;0.20;99.90
5576;DHT22;2810;50.134;8.626;2023-01-26T07:14:26;0.20;99.90
5576;DHT22;2810;50.134;8.626;2023-01-26T07:16:51;1.00;99.90
5576;DHT22;2810;50.134;8.626;2023-01-26T07:19:17;0.20;99.90
5576;DHT22;2810;50.134;8.626;2023-01-26T07:21:42;0.20;99.90
5576;DHT22;2810;50.134;8.626;2023-01-26T07:24:08;0.70;99.90
5576;DHT22;2810;50.134;8.626;2023-01-26T07:26:33;0.30;99.90
5576;DHT22;2810;50.134;8.626;2023-01-26T07:28:59;0.30;99.90
5576;DHT22;2810;50.134;8.626;2023-01-26T07:31:24;0.30;99.90
5576;DHT22;2810;50.134;8.626;2023-01-26T07:33:50;0.30;99.90
5576;DHT22;2810;50.134;8.626;2023-01-26T07:36:15;0.20;99.90
5576;DHT22;2810;50.134;8.626;2023-01-26T07:38:41;0.20;99.90
5576;DHT22;2810;50.134;8.626;2023-01-26T07:41:07;0.20;99.90
5576;DHT22;2810;50.134;8.626;2023-01-26T07:43:34;0.20;99.90
5576;DHT22;2810;50.134;8.626;2023-01-26T07:46:00;0.10;99.90
5576;DHT22;2810;50.134;8.626;2023-01-26T07:48:25;0.20;99.90
5576;DHT22;2810;50.134;8.626;2023-01-26T07:50:51;0.20;99.90
5576;DHT22;2810;50.134;8.626;2023-01-26T07:53:17;0.10;99.90
5576;DHT22;2810;50.134;8.626;2023-01-26T07:55:47;0.10;99.90
5576;DHT22;2810;50.134;8.626;2023-01-26T07:58:12;0.10;99.90
5576;DHT22;2810;50.134;8.626;2023-01-26T08:00:38;0.20;99.90
5576;DHT22;2810;50.134;8.626;2023-01-26T08:03:04;0.20;99.90
5576;DHT22;2810;50.134;8.626;2023-01-26T08:05:30;0.10;99.90
5576;DHT22;2810;50.134;8.626;2023-01-26T08:07:56;0.20;99.90
5576;DHT22;2810;50.134;8.626;2023-01-26T08:10:21;0.10;99.90
5576;DHT22;2810;50.134;8.626;2023-01-26T08:12:47;0.20;99.90
5576;DHT22;2810;50.134;8.626;2023-01-26T08:15:12;0.80;99.90
5576;DHT22;2810;50.134;8.626;2023-01-26T08:17:38;0.20;99.90
5576;DHT22;2810;50.134;8.626;2023-01-26T08:20:03;0.20;99.90
5576;DHT22;2810;50.134;8.626;2023-01-26T08:22:29;0.20;99.90
5576;DHT22;2810;50.134;8.626;2023-01-26T08:24:54;0.10;99.90
5576;DHT22;2810;50.134;8.626;2023-01-26T08:27:20;0.20;99.90
5576;DHT22;2810;50.134;8.626;2023-01-26T08:29:47;0.20;99.90
5576;DHT22;2810;50.134;8.626;2023-01-26T08:32:12;1.00;99.90
5576;DHT22;2810;50.134;8.626;2023-01-26T08:34:38;0.10;99.90
5576;DHT22;2810;50.134;8.626;2023-01-26T08:37:03;0.10;99.90
5576;DHT22;2810;50.134;8.626;2023-01-26T08:39:29;0.20;99.90
5576;DHT22;2810;50.134;8.626;2023-01-26T08:41:54;0.20;99.90
5576;DHT22;2810;50.134;8.626;2023-01-26T08:44:20;0.20;99.90
5576;DHT22;2810;50.134;8.626;2023-01-26T08:46:45;0.20;99.90
5576;DHT22;2810;50.134;8.626;2023-01-26T08:49:10;0.20;99.90
5576;DHT22;2810;50.134;8.626;2023-01-26T08:51:36;0.10;99.90
5576;DHT22;2810;50.134;8.626;2023-01-26T08:54:04;0.10;99.90
5576;DHT22;2810;50.134;8.626;2023-01-26T08:56:29;0.10;99.90
5576;DHT22;2810;50.134;8.626;2023-01-26T08:58:55;0.20;99.90
5576;DHT22;2810;50.134;8.626;2023-01-26T09:01:20;0.20;99.90
5576;DHT22;2810;50.134;8.626;2023-01-26T09:03:46;0.20;99.90
5576;DHT22;2810;50.134;8.626;2023-01-26T09:06:12;0.20;99.90
5576;DHT22;2810;50.134;8.626;2023-01-26T09:08:38;0.70;99.90
5576;DHT22;2810;50.134;8.626;2023-01-26T09:11:04;0.30;99.90
5576;DHT22;2810;50.134;8.626;2023-01-26T09:13:30;0.30;99.90
5576;DHT22;2810;50.134;8.626;2023-01-26T09:15:55;0.30;99.90
5576;DHT22;2810;50.134;8.626;2023-01-26T09:18:21;0.40;99.90
5576;DHT22;2810;50.134;8.626;2023-01-26T09:20:46;0.50;99.90
5576;DHT22;2810;50.134;8.626;2023-01-26T09:23:12;0.40;99.90
5576;DHT22;2810;50.134;8.626;2023-01-26T09:25:38;0.50;99.90
5576;DHT22;2810;50.134;8.626;2023-01-26T09:28:04;0.40;99.90
5576;DHT22;2810;50.134;8.626;2023-01-26T09:30:29;0.40;99.90
5576;DHT22;2810;50.134;8.626;2023-01-26T09:32:58;0.50;99.90
5576;DHT22;2810;50.134;8.626;2023-01-26T09:35:24;0.50;99.90
5576;DHT22;2810;50.134;8.626;2023-01-26T09:37:50;0.60;99.90
5576;DHT22;2810;50.134;8.626;2023-01-26T09:40:28;0.50;99.90
5576;DHT22;2810;50.134;8.626;2023-01-26T09:45:45;0.50;99.90
5576;DHT22;2810;50.134;8.626;2023-01-26T09:48:19;0.60;99.90
5576;DHT22;2810;50.134;8.626;2023-01-26T09:50:50;0.60;99.90
5576;DHT22;2810;50.134;8.626;2023-01-26T09:56:14;0.60;99.90
5576;DHT22;2810;50.134;8.626;2023-01-26T09:58:41;0.60;99.90
5576;DHT22;2810;50.134;8.626;2023-01-26T10:01:12;0.50;99.90
5576;DHT22;2810;50.134;8.626;2023-01-26T10:03:57;0.50;99.90
5576;DHT22;2810;50.134;8.626;2023-01-26T10:06:25;0.60;99.90
5576;DHT22;2810;50.134;8.626;2023-01-26T10:08:53;0.40;99.90
5576;DHT22;2810;50.134;8.626;2023-01-26T10:11:31;0.50;99.90
5576;DHT22;2810;50.134;8.626;2023-01-26T10:14:00;0.50;99.90
5576;DHT22;2810;50.134;8.626;2023-01-26T10:16:27;0.40;99.90
5576;DHT22;2810;50.134;8.626;2023-01-26T10:19:03;0.50;99.90
5576;DHT22;2810;50.134;8.626;2023-01-26T10:21:31;0.50;99.90
5576;DHT22;2810;50.134;8.626;2023-01-26T10:23:58;0.60;99.90
5576;DHT22;2810;50.134;8.626;2023-01-26T10:26:25;0.60;99.90
5576;DHT22;2810;50.134;8.626;2023-01-26T10:28:52;0.60;99.90
5576;DHT22;2810;50.134;8.626;2023-01-26T10:31:19;0.60;99.90
5576;DHT22;2810;50.134;8.626;2023-01-26T10:33:51;0.50;99.90
5576;DHT22;2810;50.134;8.626;2023-01-26T10:36:17;0.50;99.90
5576;DHT22;2810;50.134;8.626;2023-01-26T10:38:43;0.50;99.90
5576;DHT22;2810;50.134;8.626;2023-01-26T10:43:51;0.50;99.90
5576;DHT22;2810;50.134;8.626;2023-01-26T10:46:22;0.50;99.90
5576;DHT22;2810;50.134;8.626;2023-01-26T10:48:51;0.50;99.90
5576;DHT22;2810;50.134;8.626;2023-01-26T10:51:22;0.00;99.90
5576;DHT22;2810;50.134;8.626;2023-01-26T10:53:47;0.50;99.90
5576;DHT22;2810;50.134;8.626;2023-01-26T10:56:13;1.20;99.90
5576;DHT22;2810;50.134;8.626;2023-01-26T11:01:06;0.40;99.90
5576;DHT22;2810;50.134;8.626;2023-01-26T11:03:37;0.40;99.90
5576;DHT22;2810;50.134;8.626;2023-01-26T11:06:06;0.30;99.90
5576;DHT22;2810;50.134;8.626;2023-01-26T11:08:33;0.50;99.90
5576;DHT22;2810;50.134;8.626;2023-01-26T11:10:59;0.50;99.90
5576;DHT22;2810;50.134;8.626;2023-01-26T11:13:24;0.40;99.90
5576;DHT22;2810;50.134;8.626;2023-01-26T11:16:13;0.50;99.90
5576;DHT22;2810;50.134;8.626;2023-01-26T11:21:18;0.50;99.90
5576;DHT22;2810;50.134;8.626;2023-01-26T11:23:47;0.50;99.90
5576;DHT22;2810;50.134;8.626;2023-01-26T11:29:08;0.60;99.90
5576;DHT22;2810;50.134;8.626;2023-01-26T11:34:23;0.60;99.90
5576;DHT22;2810;50.134;8.626;2023-01-26T11:41:59;0.80;99.90
5576;DHT22;2810;50.134;8.626;2023-01-26T11:44:33;0.90;99.90
5576;DHT22;2810;50.134;8.626;2023-01-26T11:52:13;1.10;99.90
5576;DHT22;2810;50.134;8.626;2023-01-26T12:00:20;1.10;99.90
5576;DHT22;2810;50.134;8.626;2023-01-26T12:02:49;1.20;99.90
5576;DHT22;2810;50.134;8.626;2023-01-26T12:05:21;1.20;99.90
5576;DHT22;2810;50.134;8.626;2023-01-26T12:07:55;1.10;99.90
5576;DHT22;2810;50.134;8.626;2023-01-26T12:10:28;1.10;99.90
5576;DHT22;2810;50.134;8.626;2023-01-26T12:13:12;1.00;99.90
5576;DHT22;2810;50.134;8.626;2023-01-26T12:15:42;1.00;99.90
5576;DHT22;2810;50.134;8.626;2023-01-26T12:18:11;1.00;99.90
5576;DHT22;2810;50.134;8.626;2023-01-26T12:20:43;1.00;99.90
5576;DHT22;2810;50.134;8.626;2023-01-26T12:23:15;1.10;99.90
5576;DHT22;2810;50.134;8.626;2023-01-26T12:25:45;1.10;99.90
5576;DHT22;2810;50.134;8.626;2023-01-26T12:31:17;1.00;99.90
5576;DHT22;2810;50.134;8.626;2023-01-26T12:33:44;1.00;99.90
5576;DHT22;2810;50.134;8.626;2023-01-26T12:43:52;1.00;99.90
5576;DHT22;2810;50.134;8.626;2023-01-26T12:46:21;1.00;99.90
5576;DHT22;2810;50.134;8.626;2023-01-26T12:48:52;1.20;99.90
5576;DHT22;2810;50.134;8.626;2023-01-26T12:51:20;1.00;99.90
5576;DHT22;2810;50.134;8.626;2023-01-26T12:53:50;1.00;99.90
5576;DHT22;2810;50.134;8.626;2023-01-26T12:58:44;1.00;99.90
5576;DHT22;2810;50.134;8.626;2023-01-26T13:01:13;1.00;99.90
5576;DHT22;2810;50.134;8.626;2023-01-26T13:03:42;1.00;99.90
5576;DHT22;2810;50.134;8.626;2023-01-26T13:11:00;1.10;99.90
5576;DHT22;2810;50.134;8.626;2023-01-26T13:13:30;1.10;99.90
5576;DHT22;2810;50.134;8.626;2023-01-26T13:18:49;1.20;99.90
5576;DHT22;2810;50.134;8.626;2023-01-26T13:23:59;1.30;99.90
5576;DHT22;2810;50.134;8.626;2023-01-26T13:29:21;1.30;99.90
5576;DHT22;2810;50.134;8.626;2023-01-26T13:31:41;1.30;99.90
5576;DHT22;2810;50.134;8.626;2023-01-26T13:34:06;1.20;99.90
5576;DHT22;2810;50.134;8.626;2023-01-26T13:36:33;1.20;99.90
5576;DHT22;2810;50.134;8.626;2023-01-26T13:39:01;1.20;99.90
5576;DHT22;2810;50.134;8.626;2023-01-26T13:41:28;1.30;99.90
5576;DHT22;2810;50.134;8.626;2023-01-26T13:46:38;1.20;99.90
5576;DHT22;2810;50.134;8.626;2023-01-26T13:49:04;1.20;99.90
5576;DHT22;2810;50.134;8.626;2023-01-26T13:51:31;1.20;99.90
5576;DHT22;2810;50.134;8.626;2023-01-26T13:54:04;1.20;99.90
5576;DHT22;2810;50.134;8.626;2023-01-26T13:56:34;1.20;99.90
5576;DHT22;2810;50.134;8.626;2023-01-26T14:01:31;1.20;99.90
5576;DHT22;2810;50.134;8.626;2023-01-26T14:04:01;1.20;99.90
5576;DHT22;2810;50.134;8.626;2023-01-26T14:06:26;1.20;99.90
5576;DHT22;2810;50.134;8.626;2023-01-26T14:08:54;1.20;99.90
5576;DHT22;2810;50.134;8.626;2023-01-26T14:11:23;1.20;99.90
5576;DHT22;2810;50.134;8.626;2023-01-26T14:13:51;1.30;99.90
5576;DHT22;2810;50.134;8.626;2023-01-26T14:16:19;1.30;99.90
5576;DHT22;2810;50.134;8.626;2023-01-26T14:18:46;1.20;99.90
5576;DHT22;2810;50.134;8.626;2023-01-26T14:21:16;1.20;99.90
5576;DHT22;2810;50.134;8.626;2023-01-26T14:23:42;1.20;99.90
5576;DHT22;2810;50.134;8.626;2023-01-26T14:26:13;1.20;99.90
5576;DHT22;2810;50.134;8.626;2023-01-26T14:28:42;1.10;99.90
5576;DHT22;2810;50.134;8.626;2023-01-26T14:31:40;0.60;99.90
5576;DHT22;2810;50.134;8.626;2023-01-26T14:33:59;1.00;99.90
5576;DHT22;2810;50.134;8.626;2023-01-26T14:36:26;1.00;99.90
5576;DHT22;2810;50.134;8.626;2023-01-26T14:38:53;1.00;99.90
5576;DHT22;2810;50.134;8.626;2023-01-26T14:43:44;1.00;99.90
5576;DHT22;2810;50.134;8.626;2023-01-26T14:46:12;0.90;99.90
5576;DHT22;2810;50.134;8.626;2023-01-26T14:48:49;1.70;99.90
5576;DHT22;2810;50.134;8.626;2023-01-26T14:51:18;0.90;99.90
5576;DHT22;2810;50.134;8.626;2023-01-26T14:53:51;1.00;99.90
5576;DHT22;2810;50.134;8.626;2023-01-26T14:56:18;1.00;99.90
5576;DHT22;2810;50.134;8.626;2023-01-26T14:58:44;1.00;99.90
5576;DHT22;2810;50.134;8.626;2023-01-26T15:01:18;1.00;99.90
5576;DHT22;2810;50.134;8.626;2023-01-26T15:03:44;1.00;99.90
5576;DHT22;2810;50.134;8.626;2023-01-26T15:08:38;1.70;99.90
5576;DHT22;2810;50.134;8.626;2023-01-26T15:11:04;1.00;99.90
5576;DHT22;2810;50.134;8.626;2023-01-26T15:13:51;1.10;99.90
5576;DHT22;2810;50.134;8.626;2023-01-26T15:16:24;1.00;99.90
5576;DHT22;2810;50.134;8.626;2023-01-26T15:19:02;1.10;99.90
5576;DHT22;2810;50.134;8.626;2023-01-26T15:21:34;1.10;99.90
5576;DHT22;2810;50.134;8.626;2023-01-26T15:24:03;1.10;99.90
5576;DHT22;2810;50.134;8.626;2023-01-26T15:26:30;1.10;99.90
5576;DHT22;2810;50.134;8.626;2023-01-26T15:29:15;1.80;99.90
5576;DHT22;2810;50.134;8.626;2023-01-26T15:31:41;1.00;99.90
5576;DHT22;2810;50.134;8.626;2023-01-26T15:36:51;1.00;99.90
5576;DHT22;2810;50.134;8.626;2023-01-26T15:39:17;1.00;99.90
5576;DHT22;2810;50.134;8.626;2023-01-26T15:41:58;0.90;99.90
5576;DHT22;2810;50.134;8.626;2023-01-26T15:44:25;0.90;99.90
5576;DHT22;2810;50.134;8.626;2023-01-26T15:46:51;1.10;99.90
5576;DHT22;2810;50.134;8.626;2023-01-26T15:49:16;1.00;99.90
5576;DHT22;2810;50.134;8.626;2023-01-26T15:51:44;0.90;99.90
5576;DHT22;2810;50.134;8.626;2023-01-26T15:54:10;0.90;99.90
5576;DHT22;2810;50.134;8.626;2023-01-26T15:56:35;0.90;99.90
5576;DHT22;2810;50.134;8.626;2023-01-26T15:59:01;0.90;99.90
5576;DHT22;2810;50.134;8.626;2023-01-26T16:01:26;0.90;99.90
5576;DHT22;2810;50.134;8.626;2023-01-26T16:03:51;0.90;99.90
5576;DHT22;2810;50.134;8.626;2023-01-26T16:06:20;0.80;99.90
5576;DHT22;2810;50.134;8.626;2023-01-26T16:08:45;0.80;99.90
5576;DHT22;2810;50.134;8.626;2023-01-26T16:11:11;0.80;99.90
5576;DHT22;2810;50.134;8.626;2023-01-26T16:13:37;0.80;99.90
5576;DHT22;2810;50.134;8.626;2023-01-26T16:16:07;1.00;99.90
5576;DHT22;2810;50.134;8.626;2023-01-26T16:18:33;0.70;99.90
5576;DHT22;2810;50.134;8.626;2023-01-26T16:20:59;0.70;99.90
5576;DHT22;2810;50.134;8.626;2023-01-26T16:23:25;0.80;99.90
5576;DHT22;2810;50.134;8.626;2023-01-26T16:25:51;0.70;99.90
5576;DHT22;2810;50.134;8.626;2023-01-26T16:28:17;0.70;99.90
5576;DHT22;2810;50.134;8.626;2023-01-26T16:30:43;0.70;99.90
5576;DHT22;2810;50.134;8.626;2023-01-26T16:33:12;0.70;99.90
5576;DHT22;2810;50.134;8.626;2023-01-26T16:35:38;0.80;99.90
5576;DHT22;2810;50.134;8.626;2023-01-26T16:38:04;0.90;99.90
5576;DHT22;2810;50.134;8.626;2023-01-26T16:40:31;0.80;99.90
5576;DHT22;2810;50.134;8.626;2023-01-26T16:42:57;0.80;99.90
5576;DHT22;2810;50.134;8.626;2023-01-26T16:45:24;0.70;99.90
5576;DHT22;2810;50.134;8.626;2023-01-26T16:47:52;0.70;99.90
5576;DHT22;2810;50.134;8.626;2023-01-26T16:50:24;0.80;99.90
5576;DHT22;2810;50.134;8.626;2023-01-26T16:52:50;0.80;99.90
5576;DHT22;2810;50.134;8.626;2023-01-26T16:55:16;0.80;99.90
5576;DHT22;2810;50.134;8.626;2023-01-26T16:57:43;0.80;99.90
5576;DHT22;2810;50.134;8.626;2023-01-26T17:00:10;0.80;99.90
5576;DHT22;2810;50.134;8.626;2023-01-26T17:02:37;0.70;99.90
5576;DHT22;2810;50.134;8.626;2023-01-26T17:05:03;0.70;99.90
5576;DHT22;2810;50.134;8.626;2023-01-26T17:07:28;0.80;99.90
5576;DHT22;2810;50.134;8.626;2023-01-26T17:09:54;0.80;99.90
5576;DHT22;2810;50.134;8.626;2023-01-26T17:12:19;0.80;99.90
5576;DHT22;2810;50.134;8.626;2023-01-26T17:14:45;0.90;99.90
5576;DHT22;2810;50.134;8.626;2023-01-26T17:17:10;0.70;99.90
5576;DHT22;2810;50.134;8.626;2023-01-26T17:19:36;0.70;99.90
5576;DHT22;2810;50.134;8.626;2023-01-26T17:22:01;1.30;99.90
5576;DHT22;2810;50.134;8.626;2023-01-26T17:24:27;0.60;99.90
5576;DHT22;2810;50.134;8.626;2023-01-26T17:26:53;0.60;99.90
5576;DHT22;2810;50.134;8.626;2023-01-26T17:29:18;0.70;99.90
5576;DHT22;2810;50.134;8.626;2023-01-26T17:31:44;0.60;99.90
5576;DHT22;2810;50.134;8.626;2023-01-26T17:34:09;0.60;99.90
5576;DHT22;2810;50.134;8.626;2023-01-26T17:36:35;0.60;99.90
5576;DHT22;2810;50.134;8.626;2023-01-26T17:39:00;0.70;99.90
5576;DHT22;2810;50.134;8.626;2023-01-26T17:41:26;0.70;99.90
5576;DHT22;2810;50.134;8.626;2023-01-26T17:43:52;0.70;99.90